Time;durP1;ratioP1;P1;durP2;ratioP2;P2;SDS_P1;SDS_P2;PMS_P1;PMS_P2;Temp;Humidity;BMP_temperature;BMP_pressure;BME280_temperature;BME280_humidity;BME280_pressure;Samples;Min_cycle;Max_cycle;Signal;HPM_P1;HPM_P2
2021/09/25 00:02:26;;;;;;;3.72;1.90;;;;;;;14.03;62.00;99967.84;10438236;28;20292;-63
2021/09/25 00:07:28;;;;;;;6.95;2.28;;;;;;;14.03;61.94;99966.06;10438034;28;20157;-63
2021/09/25 00:12:30;;;;;;;3.30;1.92;;;;;;;13.91;62.12;99961.72;10437955;28;20140;-63
2021/09/25 00:17:31;;;;;;;3.08;1.88;;;;;;;13.82;62.26;99959.75;10437672;28;20199;-63
2021/09/25 00:22:33;;;;;;;5.50;2.00;;;;;;;13.64;62.68;99961.06;10437957;28;20444;-64
2021/09/25 00:27:36;;;;;;;4.15;2.20;;;;;;;13.60;62.67;99957.00;10437135;28;20494;-64
2021/09/25 00:32:39;;;;;;;4.10;2.10;;;;;;;13.55;62.75;99959.97;10435698;28;20048;-63
2021/09/25 00:37:41;;;;;;;3.97;2.00;;;;;;;13.44;63.19;99961.66;10437269;28;20063;-63
2021/09/25 00:42:43;;;;;;;3.55;2.00;;;;;;;13.48;62.75;99969.22;10436187;28;20087;-63
2021/09/25 00:47:47;;;;;;;3.50;2.15;;;;;;;13.47;62.80;99980.69;10435021;28;20665;-63
2021/09/25 00:52:49;;;;;;;3.72;2.20;;;;;;;13.40;62.62;99973.28;10436192;28;20056;-63
2021/09/25 00:57:57;;;;;;;5.38;2.40;;;;;;;13.34;62.64;99974.59;10436209;28;20145;-64
2021/09/25 01:02:59;;;;;;;5.72;2.40;;;;;;;13.12;62.58;99973.56;10435653;28;20049;-63
2021/09/25 01:08:01;;;;;;;5.35;2.35;;;;;;;13.01;63.03;99982.16;10435314;28;20141;-63
2021/09/25 01:13:02;;;;;;;3.30;2.20;;;;;;;13.06;63.28;99974.84;10433956;28;20575;-63
2021/09/25 01:18:04;;;;;;;4.05;2.42;;;;;;;13.07;62.97;99975.69;10435279;28;20129;-63
2021/09/25 01:23:06;;;;;;;5.05;2.28;;;;;;;13.06;62.86;99976.59;10435692;28;20053;-63
2021/09/25 01:28:08;;;;;;;5.93;2.67;;;;;;;13.03;62.88;99971.59;10434792;28;20533;-63
2021/09/25 01:33:10;;;;;;;5.15;2.17;;;;;;;12.95;63.05;99991.31;10434506;28;20048;-64
2021/09/25 01:38:11;;;;;;;5.82;2.42;;;;;;;12.94;63.14;99991.44;10434805;28;20088;-63
2021/09/25 01:43:15;;;;;;;4.25;2.20;;;;;;;12.87;62.91;99990.16;10434722;28;20045;-63
2021/09/25 01:48:18;;;;;;;4.38;2.38;;;;;;;12.84;63.22;99980.69;10434201;28;20063;-63
2021/09/25 01:53:21;;;;;;;3.15;2.15;;;;;;;12.77;63.06;99974.19;10434006;28;20083;-64
2021/09/25 01:58:23;;;;;;;4.43;2.92;;;;;;;12.63;62.86;99984.78;10434242;28;20051;-63
2021/09/25 02:03:25;;;;;;;4.10;2.00;;;;;;;12.57;63.11;99984.34;10433655;28;20140;-63
2021/09/25 02:08:27;;;;;;;6.75;2.40;;;;;;;12.59;63.31;99991.19;10433886;28;20425;-63
2021/09/25 02:13:29;;;;;;;5.63;2.30;;;;;;;12.52;63.25;99999.53;10448797;28;20063;-63
2021/09/25 02:18:31;;;;;;;3.83;2.20;;;;;;;12.48;63.23;100004.16;10433381;28;20438;-63
2021/09/25 02:23:33;;;;;;;3.83;2.40;;;;;;;12.43;63.55;100006.28;10433564;28;20053;-63
2021/09/25 02:28:35;;;;;;;6.32;2.67;;;;;;;12.39;63.52;100006.56;10433475;28;20135;-63
2021/09/25 02:33:37;;;;;;;6.70;2.60;;;;;;;12.11;63.68;99997.84;10432969;28;20090;-63
2021/09/25 02:38:38;;;;;;;4.03;2.22;;;;;;;12.01;64.23;99990.66;10431857;28;20049;-63
2021/09/25 02:43:40;;;;;;;4.43;2.10;;;;;;;12.03;63.97;99994.88;10431804;28;20055;-63
2021/09/25 02:48:42;;;;;;;4.03;2.03;;;;;;;12.07;63.69;99985.88;10433070;28;20508;-63
2021/09/25 02:53:44;;;;;;;4.25;2.00;;;;;;;12.02;63.81;99979.25;10433020;28;20424;-63
2021/09/25 02:58:45;;;;;;;4.68;2.25;;;;;;;11.98;64.09;99988.25;10441078;28;20059;-64
2021/09/25 03:03:47;;;;;;;3.53;1.80;;;;;;;11.99;63.58;99980.28;10440662;28;20272;-64
2021/09/25 03:08:49;;;;;;;3.72;2.20;;;;;;;11.99;63.50;99982.06;10438918;28;20068;-64
2021/09/25 03:13:51;;;;;;;25.55;3.40;;;;;;;11.87;63.62;99993.34;10440237;28;20416;-63
2021/09/25 03:18:52;;;;;;;8.77;2.67;;;;;;;11.82;63.94;99998.91;10440128;28;20041;-63
2021/09/25 03:23:54;;;;;;;3.47;2.20;;;;;;;12.05;63.75;99997.38;10440258;28;20048;-64
2021/09/25 03:28:56;;;;;;;3.33;2.13;;;;;;;12.22;63.16;99997.16;10439663;28;20056;-64
2021/09/25 03:33:58;;;;;;;3.65;2.15;;;;;;;12.20;63.27;99980.69;10439668;28;20412;-64
2021/09/25 03:39:00;;;;;;;3.92;2.10;;;;;;;12.23;63.30;99984.88;10439158;28;20169;-63
2021/09/25 03:44:02;;;;;;;3.88;2.22;;;;;;;12.20;63.00;99985.06;10438888;28;20131;-64
2021/09/25 03:49:05;;;;;;;4.70;2.03;;;;;;;12.17;63.12;99988.75;10438888;28;20071;-64
2021/09/25 03:54:06;;;;;;;3.33;2.13;;;;;;;12.17;63.00;99991.38;10438417;28;20052;-63
2021/09/25 03:59:08;;;;;;;3.03;1.98;;;;;;;12.26;63.08;99996.00;10438865;28;20045;-63
2021/09/25 04:04:10;;;;;;;4.38;2.00;;;;;;;12.34;62.91;99999.00;10438187;28;20063;-64
2021/09/25 04:09:12;;;;;;;3.88;2.10;;;;;;;12.34;62.45;99998.16;10437785;28;20211;-63
2021/09/25 04:14:15;;;;;;;3.92;1.88;;;;;;;12.14;62.85;99989.78;10437847;28;20056;-64
2021/09/25 04:19:16;;;;;;;4.72;2.10;;;;;;;11.94;63.17;100000.72;10436029;28;20509;-64
2021/09/25 04:24:18;;;;;;;3.75;2.30;;;;;;;11.82;63.58;99998.03;10437124;28;20185;-63
2021/09/25 04:29:20;;;;;;;2.90;1.90;;;;;;;11.80;63.56;100005.16;10437220;28;20082;-63
2021/09/25 04:34:23;;;;;;;5.78;2.10;;;;;;;11.76;63.60;100015.00;10436757;28;20135;-64
2021/09/25 04:39:25;;;;;;;3.30;2.00;;;;;;;11.86;63.80;100010.00;10436877;28;20139;-64
2021/09/25 04:44:27;;;;;;;3.17;2.00;;;;;;;12.06;63.49;100004.31;10435484;28;20141;-63
2021/09/25 04:49:28;;;;;;;3.28;1.92;;;;;;;12.29;63.15;100005.50;10436649;28;20144;-63
2021/09/25 04:54:30;;;;;;;3.90;2.00;;;;;;;12.39;62.54;100004.78;10436135;28;20059;-64
2021/09/25 04:59:32;;;;;;;4.00;2.25;;;;;;;12.44;62.34;99997.44;10434050;28;20416;-64
2021/09/25 05:04:33;;;;;;;3.95;2.00;;;;;;;12.42;62.56;100001.94;10435997;28;20137;-64
2021/09/25 05:09:35;;;;;;;3.97;2.40;;;;;;;12.51;62.60;100001.34;10433460;28;20057;-64
2021/09/25 05:14:38;;;;;;;5.53;2.28;;;;;;;12.62;62.23;99990.97;10435656;28;20045;-63
2021/09/25 05:19:41;;;;;;;5.55;2.30;;;;;;;12.64;62.45;99996.13;10434760;28;20500;-64
2021/09/25 05:24:45;;;;;;;4.65;2.28;;;;;;;12.71;62.08;99995.59;10433963;28;20412;-64
2021/09/25 05:29:46;;;;;;;3.63;2.38;;;;;;;12.78;61.83;100002.09;10434933;28;20053;-64
2021/09/25 05:34:48;;;;;;;3.60;2.50;;;;;;;12.63;62.30;100000.53;10435391;28;20053;-64
2021/09/25 05:39:54;;;;;;;5.95;2.72;;;;;;;12.57;62.84;100006.19;10449586;28;20045;-64
2021/09/25 05:44:56;;;;;;;6.65;3.35;;;;;;;12.77;62.58;99995.19;10434525;28;20052;-64
2021/09/25 05:49:58;;;;;;;8.63;4.20;;;;;;;12.86;62.59;100002.44;10434320;28;20057;-64
2021/09/25 05:55:00;;;;;;;6.43;3.40;;;;;;;12.90;62.45;100001.28;10434543;28;20510;-64
2021/09/25 06:00:04;;;;;;;13.48;4.72;;;;;;;13.02;62.37;100011.91;10433977;28;20416;-64
2021/09/25 06:05:08;;;;;;;8.85;5.07;;;;;;;13.05;62.61;100019.59;10433700;28;20424;-64
2021/09/25 06:10:10;;;;;;;9.00;4.95;;;;;;;13.12;62.36;100008.53;10433753;28;20433;-64
2021/09/25 06:15:12;;;;;;;7.20;4.55;;;;;;;13.14;62.54;100011.91;10433610;28;20493;-64
2021/09/25 06:20:14;;;;;;;7.15;4.07;;;;;;;13.31;62.05;100013.38;10433504;28;20056;-64
2021/09/25 06:25:15;;;;;;;7.32;4.20;;;;;;;13.40;61.65;100004.81;10433952;28;20045;-64
2021/09/25 06:30:17;;;;;;;9.43;4.35;;;;;;;13.61;61.37;100006.81;10436052;28;20459;-64
2021/09/25 06:35:19;;;;;;;8.82;5.03;;;;;;;13.78;61.32;100005.59;10441279;28;20059;-64
2021/09/25 06:40:20;;;;;;;8.70;5.00;;;;;;;13.87;60.97;100010.22;10441654;28;20056;-64
2021/09/25 06:45:23;;;;;;;6.78;4.85;;;;;;;13.90;60.97;100022.31;10440113;28;20049;-64
2021/09/25 06:50:25;;;;;;;8.13;5.18;;;;;;;13.94;60.88;100021.13;10441188;28;20053;-64
2021/09/25 06:55:27;;;;;;;5.35;3.50;;;;;;;13.71;61.25;100020.16;10440814;28;20041;-64
2021/09/25 07:00:29;;;;;;;6.25;3.65;;;;;;;13.78;61.42;100016.13;10440950;28;20235;-64
2021/09/25 07:05:30;;;;;;;7.97;5.60;;;;;;;14.04;61.00;100023.00;10440462;28;20060;-64
2021/09/25 07:10:32;;;;;;;10.77;6.38;;;;;;;14.17;60.53;100021.13;10438622;28;20056;-64
2021/09/25 07:15:34;;;;;;;8.10;5.90;;;;;;;14.26;60.28;100023.09;10440419;28;20059;-64
2021/09/25 07:20:36;;;;;;;9.63;6.00;;;;;;;14.11;60.89;100026.84;10440079;28;20386;-64
2021/09/25 07:25:39;;;;;;;6.82;4.70;;;;;;;14.12;60.96;100030.31;10440149;28;20049;-64
2021/09/25 07:30:43;;;;;;;7.53;5.20;;;;;;;14.38;60.48;100034.50;10439345;28;20059;-64
2021/09/25 07:35:45;;;;;;;8.98;5.90;;;;;;;14.68;60.18;100029.63;10439576;28;20048;-64
2021/09/25 07:40:47;;;;;;;7.88;5.90;;;;;;;15.14;59.14;100034.88;10438736;28;20056;-64
2021/09/25 07:45:49;;;;;;;9.20;5.60;;;;;;;15.69;58.14;100040.22;10438980;28;20071;-64
2021/09/25 07:50:51;;;;;;;6.38;5.20;;;;;;;16.09;57.18;100036.06;10438523;28;20065;-64
2021/09/25 07:55:53;;;;;;;8.05;5.57;;;;;;;16.37;56.23;100031.16;10438278;28;20049;-64
2021/09/25 08:00:55;;;;;;;6.20;4.75;;;;;;;16.49;56.20;100036.31;10438560;28;20417;-64
2021/09/25 08:05:57;;;;;;;6.93;4.95;;;;;;;16.75;55.97;100031.50;10437944;28;20060;-64
2021/09/25 08:10:58;;;;;;;7.88;5.00;;;;;;;16.64;55.53;100028.91;10437595;28;20061;-64
2021/09/25 08:16:00;;;;;;;7.40;4.13;;;;;;;16.90;55.33;100041.63;10437904;28;20045;-64
2021/09/25 08:21:02;;;;;;;8.18;4.18;;;;;;;17.20;54.28;100053.22;10437442;28;20575;-64
2021/09/25 08:26:04;;;;;;;5.47;3.28;;;;;;;17.66;53.54;100040.38;10437297;28;20052;-64
2021/09/25 08:31:05;;;;;;;5.40;3.22;;;;;;;17.86;53.31;100050.03;10436910;28;20536;-64
2021/09/25 08:36:07;;;;;;;5.32;3.10;;;;;;;17.76;53.38;100055.31;10437281;28;20048;-64
2021/09/25 08:41:09;;;;;;;5.85;3.22;;;;;;;17.87;52.90;100046.44;10436693;28;20379;-65
2021/09/25 08:46:13;;;;;;;5.63;3.15;;;;;;;17.97;53.08;100043.81;10436554;28;20420;-64
2021/09/25 08:51:15;;;;;;;7.20;2.85;;;;;;;18.04;52.83;100044.94;10436416;28;20056;-64
2021/09/25 08:56:16;;;;;;;6.70;3.05;;;;;;;18.17;52.65;100040.22;10436030;28;20048;-64
2021/09/25 09:01:20;;;;;;;5.63;2.70;;;;;;;18.54;51.56;100038.63;10435938;28;20401;-64
2021/09/25 09:06:34;;;;;;;7.68;2.70;;;;;;;18.71;51.27;100037.91;10434542;28;20074;-64
2021/09/25 09:11:41;;;;;;;5.78;2.60;;;;;;;18.99;50.67;100046.81;10434146;28;20428;-64
2021/09/25 09:16:57;;;;;;;5.82;2.80;;;;;;;19.08;50.80;100038.88;10435262;28;20136;-64
2021/09/25 09:22:04;;;;;;;5.93;2.55;;;;;;;19.48;50.05;100034.13;10435120;28;20523;-64
2021/09/25 09:27:18;;;;;;;5.45;2.47;;;;;;;19.83;48.87;100035.25;10434870;28;20051;-64
2021/09/25 09:32:23;;;;;;;5.93;2.85;;;;;;;20.09;49.33;100017.66;10435267;28;20543;-64
2021/09/25 09:37:25;;;;;;;6.28;2.60;;;;;;;20.24;49.17;100016.13;10435070;28;20417;-64
2021/09/25 09:42:49;;;;;;;6.07;2.78;;;;;;;20.26;48.52;100001.72;10433912;28;20056;-64
2021/09/25 09:47:50;;;;;;;8.70;3.38;;;;;;;20.31;48.85;100009.25;10434851;28;20509;-64
2021/09/25 09:52:52;;;;;;;6.18;2.90;;;;;;;20.18;49.02;100011.44;10434059;28;20048;-64
2021/09/25 09:58:05;;;;;;;5.65;3.03;;;;;;;20.11;49.09;100008.53;10434620;28;20075;-64
2021/09/25 10:03:09;;;;;;;6.97;3.28;;;;;;;20.04;49.40;100004.81;10433513;28;20084;-64
2021/09/25 10:08:12;;;;;;;5.25;3.10;;;;;;;20.13;49.94;100000.44;10433787;28;20048;-64
2021/09/25 10:13:17;;;;;;;8.43;3.38;;;;;;;20.17;49.18;99983.22;10434103;28;20350;-64
2021/09/25 10:18:19;;;;;;;6.00;2.78;;;;;;;20.09;49.39;99991.09;10433979;28;20053;-64
2021/09/25 10:23:21;;;;;;;7.63;3.63;;;;;;;19.83;50.16;99992.78;10433530;28;20057;-63
2021/09/25 10:28:25;;;;;;;7.00;3.00;;;;;;;19.75;50.37;99996.16;10433217;28;20053;-63
2021/09/25 10:33:27;;;;;;;6.40;3.00;;;;;;;20.10;50.25;99987.44;10433112;28;20061;-63
2021/09/25 10:38:35;;;;;;;5.32;2.97;;;;;;;20.37;49.91;99979.41;10433832;28;20056;-63
2021/09/25 10:43:56;;;;;;;5.43;2.97;;;;;;;20.64;49.54;99979.31;10433533;28;20052;-63
2021/09/25 10:48:58;;;;;;;6.00;2.67;;;;;;;20.75;48.71;99972.94;10432924;28;20056;-63
2021/09/25 10:54:03;;;;;;;6.82;2.85;;;;;;;21.04;47.85;99971.66;10433243;28;20051;-64
2021/09/25 10:59:06;;;;;;;8.70;3.05;;;;;;;21.37;47.72;99966.53;10433105;28;20068;-63
2021/09/25 11:04:19;;;;;;;8.55;2.90;;;;;;;21.42;47.15;99966.84;10432879;28;20053;-63
2021/09/25 11:09:21;;;;;;;6.47;2.80;;;;;;;21.62;47.81;99968.28;10432520;28;20108;-64
2021/09/25 11:14:26;;;;;;;5.40;2.40;;;;;;;21.69;46.59;99951.50;10432582;28;20622;-64
2021/09/25 11:19:30;;;;;;;6.10;2.63;;;;;;;21.73;46.04;99952.84;10440151;28;20055;-64
2021/09/25 11:24:36;;;;;;;4.78;2.50;;;;;;;21.73;46.29;99941.38;10439863;28;20729;-63
2021/09/25 11:29:58;;;;;;;6.93;2.50;;;;;;;21.71;46.42;99943.34;10439244;28;20051;-63
2021/09/25 11:35:03;;;;;;;8.93;2.38;;;;;;;21.85;44.98;99934.72;10439464;28;20051;-65
2021/09/25 11:40:05;;;;;;;7.85;2.50;;;;;;;21.86;44.67;99926.56;10439789;28;20392;-65
2021/09/25 11:45:10;;;;;;;5.55;2.40;;;;;;;21.92;44.81;99925.09;10439029;28;20139;-65
2021/09/25 11:50:26;;;;;;;6.63;2.40;;;;;;;21.75;44.36;99926.06;10438913;28;20065;-65
2021/09/25 11:55:30;;;;;;;4.45;2.25;;;;;;;21.56;44.26;99919.19;10438799;28;20055;-65
2021/09/25 12:00:38;;;;;;;6.60;2.17;;;;;;;21.75;44.84;99912.75;10438368;28;20051;-64
2021/09/25 12:05:46;;;;;;;3.90;2.10;;;;;;;21.93;43.45;99902.78;10439943;28;20131;-64
2021/09/25 12:10:56;;;;;;;4.63;2.38;;;;;;;22.17;41.01;99908.16;10437934;28;20152;-65
2021/09/25 12:16:00;;;;;;;;;;;;;;;21.89;41.54;99904.97;10438136;28;20049;-65
2021/09/25 12:21:05;;;;;;;6.32;2.20;;;;;;;22.28;41.80;99899.84;10437611;28;20300;-65
2021/09/25 12:26:14;;;;;;;4.38;2.00;;;;;;;22.41;40.65;99894.84;10437539;28;20048;-65
2021/09/25 12:31:32;;;;;;;4.40;2.20;;;;;;;22.52;41.32;99880.34;10437153;28;20060;-64
2021/09/25 12:36:40;;;;;;;3.60;2.20;;;;;;;22.52;41.09;99880.34;10437246;28;20041;-64
2021/09/25 12:41:54;;;;;;;4.22;2.10;;;;;;;22.55;41.65;99874.69;10436830;28;20056;-64
2021/09/25 12:46:58;;;;;;;4.10;2.20;;;;;;;22.54;41.19;99867.66;10436970;28;20048;-64
2021/09/25 12:52:01;;;;;;;5.00;2.20;;;;;;;22.58;42.90;99861.00;10436522;28;20139;-64
2021/09/25 12:57:09;;;;;;;6.90;2.10;;;;;;;22.78;41.17;99858.84;10436834;28;20053;-64
2021/09/25 13:02:19;;;;;;;4.25;2.25;;;;;;;22.76;41.02;99863.50;10435942;28;20049;-64
2021/09/25 13:07:33;;;;;;;5.30;2.30;;;;;;;22.85;40.41;99854.47;10436153;28;20103;-64
2021/09/25 13:12:42;;;;;;;5.25;2.40;;;;;;;23.09;40.03;99851.69;10435407;28;20064;-64
2021/09/25 13:17:47;;;;;;;5.88;2.17;;;;;;;22.97;40.47;99847.75;10435541;28;20044;-64
2021/09/25 13:22:54;;;;;;;5.22;2.30;;;;;;;23.00;40.36;99844.75;10435200;28;20056;-64
2021/09/25 13:27:57;;;;;;;4.20;2.30;;;;;;;23.08;40.94;99826.88;10435287;28;20056;-64
2021/09/25 13:32:58;;;;;;;4.78;2.30;;;;;;;23.13;41.08;99826.31;10434677;28;20055;-64
2021/09/25 13:38:00;;;;;;;3.83;2.00;;;;;;;23.01;40.96;99815.22;10434342;28;20048;-64
2021/09/25 13:43:02;;;;;;;5.57;2.20;;;;;;;22.98;40.73;99814.75;10434614;28;20048;-64
2021/09/25 13:48:03;;;;;;;4.38;2.10;;;;;;;23.03;40.37;99805.22;10434154;28;20048;-64
2021/09/25 13:53:09;;;;;;;5.97;2.40;;;;;;;23.14;40.11;99798.66;10434075;28;20228;-64
2021/09/25 13:58:11;;;;;;;6.03;2.20;;;;;;;23.24;39.46;99797.44;10434221;28;20519;-64
2021/09/25 14:03:12;;;;;;;5.25;2.47;;;;;;;23.35;39.26;99798.88;10434584;28;20053;-64
2021/09/25 14:08:15;;;;;;;4.75;1.98;;;;;;;23.27;38.94;99788.22;10433785;28;20068;-64
2021/09/25 14:13:17;;;;;;;6.53;1.98;;;;;;;23.25;39.63;99785.75;10433967;28;20052;-64
2021/09/25 14:18:18;;;;;;;4.22;2.20;;;;;;;23.29;39.56;99783.53;10433767;28;20624;-64
2021/09/25 14:23:20;;;;;;;3.92;2.08;;;;;;;23.36;38.40;99779.19;10432124;28;20075;-64
2021/09/25 14:28:22;;;;;;;4.13;2.10;;;;;;;23.49;38.53;99777.59;10433501;28;20515;-63
2021/09/25 14:33:23;;;;;;;5.78;2.50;;;;;;;23.43;38.87;99775.66;10432916;28;20067;-63
2021/09/25 14:38:25;;;;;;;4.18;2.03;;;;;;;23.32;38.92;99772.53;10433339;28;20361;-63
2021/09/25 14:43:28;;;;;;;5.82;2.22;;;;;;;23.35;38.86;99774.88;10433159;28;20405;-63
2021/09/25 14:48:30;;;;;;;4.35;2.10;;;;;;;23.11;39.08;99774.97;10431581;28;20048;-63
2021/09/25 14:53:32;;;;;;;5.88;2.20;;;;;;;23.05;39.13;99773.03;10439197;28;20061;-63
2021/09/25 14:58:34;;;;;;;6.10;2.13;;;;;;;23.07;39.64;99771.00;10441002;28;20045;-63
2021/09/25 15:03:36;;;;;;;5.25;2.10;;;;;;;23.00;39.39;99762.06;10440756;28;20051;-63
2021/09/25 15:08:39;;;;;;;3.60;2.20;;;;;;;22.85;40.02;99755.78;10440378;28;20075;-63
2021/09/25 15:13:41;;;;;;;3.58;2.00;;;;;;;22.66;40.42;99749.84;10439936;28;20049;-63
2021/09/25 15:18:43;;;;;;;3.65;1.85;;;;;;;22.61;40.85;99746.03;10440419;28;20197;-63
2021/09/25 15:23:44;;;;;;;6.00;3.00;;;;;;;22.60;40.47;99747.03;10440349;28;20133;-63
2021/09/25 15:28:47;;;;;;;8.07;4.90;;;;;;;22.54;40.68;99737.91;10438560;28;21305;-63
2021/09/25 15:33:48;;;;;;;10.48;3.72;;;;;;;22.63;40.09;99747.53;10439291;28;20049;-63
2021/09/25 15:38:50;;;;;;;8.38;2.92;;;;;;;22.83;39.75;99749.81;10439295;28;20052;-63
2021/09/25 15:43:52;;;;;;;11.13;5.03;;;;;;;23.13;40.36;99748.97;10438603;28;20056;-63
2021/09/25 15:48:54;;;;;;;4.53;3.00;;;;;;;23.25;39.44;99748.38;10438896;28;20500;-63
2021/09/25 15:53:56;;;;;;;7.50;3.25;;;;;;;23.41;39.37;99750.16;10438608;28;20149;-63
2021/09/25 15:58:57;;;;;;;9.73;4.32;;;;;;;23.35;39.24;99756.19;10439083;28;20505;-63
2021/09/25 16:03:59;;;;;;;24.38;14.70;;;;;;;23.29;39.71;99754.19;10437971;28;20048;-63
2021/09/25 16:09:01;;;;;;;20.10;10.05;;;;;;;23.29;39.71;99756.84;10438079;28;20508;-63
2021/09/25 16:14:03;;;;;;;11.18;6.60;;;;;;;23.13;40.24;99772.97;10436307;28;20211;-63
2021/09/25 16:19:05;;;;;;;76.55;56.17;;;;;;;22.99;40.55;99763.88;10437938;28;20045;-63
2021/09/25 16:24:07;;;;;;;45.60;27.40;;;;;;;22.63;40.93;99760.88;10436075;28;20100;-63
2021/09/25 16:29:11;;;;;;;27.58;12.98;;;;;;;22.45;41.69;99767.44;10437505;28;20486;-63
2021/09/25 16:34:13;;;;;;;7.30;3.20;;;;;;;22.30;43.12;99769.97;10436916;28;20059;-63
2021/09/25 16:39:14;;;;;;;6.20;2.50;;;;;;;22.03;46.06;99773.00;10451464;28;20049;-63
2021/09/25 16:44:17;;;;;;;40.78;30.23;;;;;;;21.58;45.88;99783.28;10436794;28;20090;-63
2021/09/25 16:49:18;;;;;;;8.55;3.00;;;;;;;21.37;46.22;99782.94;10436674;28;20053;-63
2021/09/25 16:54:20;;;;;;;18.15;10.13;;;;;;;21.07;46.90;99795.81;10436199;28;20049;-63
2021/09/25 16:59:22;;;;;;;6.32;3.40;;;;;;;20.82;47.59;99791.41;10436066;28;20432;-63
2021/09/25 17:04:24;;;;;;;7.00;4.13;;;;;;;20.48;46.69;99798.50;10436037;28;20401;-63
2021/09/25 17:09:25;;;;;;;7.75;3.00;;;;;;;20.01;47.13;99797.22;10435510;28;20057;-63
2021/09/25 17:14:27;;;;;;;6.03;2.83;;;;;;;19.71;46.19;99795.78;10434744;28;20056;-63
2021/09/25 17:19:29;;;;;;;6.30;3.08;;;;;;;19.46;46.77;99789.41;10436348;28;20076;-63
2021/09/25 17:24:31;;;;;;;6.60;2.90;;;;;;;19.37;45.86;99786.84;10435156;28;20049;-63
2021/09/25 17:29:33;;;;;;;5.53;2.88;;;;;;;19.20;45.67;99783.19;10434822;28;20047;-63
2021/09/25 17:34:34;;;;;;;9.68;2.92;;;;;;;19.03;46.45;99785.81;10435092;28;20056;-64
2021/09/25 17:39:36;;;;;;;7.32;3.65;;;;;;;18.79;48.04;99785.50;10434800;28;20477;-64
2021/09/25 17:44:38;;;;;;;6.00;3.67;;;;;;;18.63;49.19;99788.75;10434529;28;20140;-63
2021/09/25 17:49:40;;;;;;;9.00;4.30;;;;;;;18.49;49.51;99799.84;10434298;28;20049;-63
2021/09/25 17:54:45;;;;;;;8.05;4.30;;;;;;;18.26;49.99;99795.88;10434437;28;20064;-63
2021/09/25 17:59:48;;;;;;;9.10;4.47;;;;;;;18.15;51.03;99798.66;10434098;28;20053;-63
2021/09/25 18:04:51;;;;;;;10.57;4.15;;;;;;;18.01;51.62;99805.25;10434129;28;20874;-63
2021/09/25 18:09:53;;;;;;;8.15;4.70;;;;;;;17.86;52.47;99811.94;10431633;28;20137;-63
2021/09/25 18:14:54;;;;;;;8.18;4.47;;;;;;;17.58;53.61;99818.91;10433879;28;20676;-63
2021/09/25 18:20:00;;;;;;;9.30;4.38;;;;;;;17.49;53.92;99811.78;10433974;28;20516;-63
2021/09/25 18:25:08;;;;;;;9.93;4.68;;;;;;;17.30;54.49;99814.38;10435862;28;20428;-64
2021/09/25 18:30:10;;;;;;;8.52;4.50;;;;;;;17.07;54.27;99810.31;10442095;28;20420;-63
2021/09/25 18:35:13;;;;;;;5.68;3.95;;;;;;;16.97;54.81;99820.03;10441635;28;20060;-64
2021/09/25 18:40:15;;;;;;;7.38;4.50;;;;;;;16.90;54.71;99825.00;10441859;28;20059;-63
2021/09/25 18:45:17;;;;;;;6.70;4.43;;;;;;;16.81;54.87;99820.50;10441435;28;20052;-63
2021/09/25 18:50:19;;;;;;;8.10;3.97;;;;;;;16.55;55.86;99832.50;10441110;28;20512;-63
2021/09/25 18:55:21;;;;;;;8.13;3.80;;;;;;;16.48;56.34;99830.53;10440688;28;20706;-63
2021/09/25 19:00:22;;;;;;;6.97;3.90;;;;;;;16.41;56.88;99842.53;10440940;28;20057;-63
2021/09/25 19:05:24;;;;;;;8.45;4.43;;;;;;;16.38;56.86;99848.91;10440293;28;20051;-63
2021/09/25 19:10:26;;;;;;;7.93;4.80;;;;;;;16.37;56.39;99855.16;10440074;28;20106;-64
2021/09/25 19:15:28;;;;;;;6.50;4.43;;;;;;;16.20;57.36;99856.56;10440272;28;20067;-63
2021/09/25 19:20:29;;;;;;;8.15;4.10;;;;;;;16.06;57.85;99856.88;10440339;28;20516;-63
2021/09/25 19:25:31;;;;;;;8.52;4.40;;;;;;;16.17;57.70;99856.84;10439610;28;20359;-63
2021/09/25 19:30:33;;;;;;;10.35;4.30;;;;;;;16.19;57.98;99857.56;10439680;28;20061;-63
2021/09/25 19:35:35;;;;;;;5.28;3.83;;;;;;;16.21;57.88;99850.34;10438588;28;20057;-63
2021/09/25 19:40:38;;;;;;;6.43;3.70;;;;;;;16.17;57.74;99856.84;10439338;28;20055;-63
2021/09/25 19:45:40;;;;;;;6.93;3.80;;;;;;;16.16;57.94;99855.16;10439001;28;20052;-63
2021/09/25 19:50:42;;;;;;;7.40;4.22;;;;;;;16.07;57.79;99861.22;10439396;28;20061;-63
2021/09/25 19:55:45;;;;;;;6.18;4.45;;;;;;;15.96;58.30;99871.81;10439089;28;20049;-63
2021/09/25 20:00:49;;;;;;;8.70;4.28;;;;;;;15.86;58.51;99873.53;10438478;28;20061;-63
2021/09/25 20:05:53;;;;;;;10.40;4.80;;;;;;;15.81;58.86;99875.72;10438259;28;20055;-63
2021/09/25 20:10:55;;;;;;;8.70;4.28;;;;;;;15.96;58.94;99873.59;10437941;28;20053;-63
2021/09/25 20:15:57;;;;;;;8.70;4.38;;;;;;;16.09;58.34;99863.72;10438010;28;20052;-63
2021/09/25 20:20:58;;;;;;;7.97;4.53;;;;;;;16.09;58.52;99859.28;10437506;28;20049;-63
2021/09/25 20:26:04;;;;;;;6.63;4.40;;;;;;;16.19;58.47;99848.78;10437888;28;20136;-63
2021/09/25 20:31:06;;;;;;;8.35;4.32;;;;;;;16.25;58.40;99858.84;10451582;28;20065;-64
2021/09/25 20:36:08;;;;;;;6.78;4.60;;;;;;;16.19;58.05;99857.56;10436686;28;20518;-63
2021/09/25 20:41:10;;;;;;;10.63;5.38;;;;;;;16.01;58.38;99852.97;10435607;28;20049;-63
2021/09/25 20:46:13;;;;;;;6.53;4.68;;;;;;;15.98;59.00;99851.41;10436555;28;20067;-63
2021/09/25 20:51:14;;;;;;;7.00;4.60;;;;;;;16.02;59.25;99852.84;10435391;28;20461;-63
2021/09/25 20:56:16;;;;;;;8.48;4.93;;;;;;;16.15;59.32;99855.28;10436435;28;20045;-65
2021/09/25 21:01:18;;;;;;;8.02;4.95;;;;;;;16.35;58.78;99858.88;10436641;28;20468;-65
2021/09/25 21:06:20;;;;;;;7.72;5.30;;;;;;;16.44;58.36;99874.81;10435752;28;20551;-65
2021/09/25 21:11:22;;;;;;;6.78;5.47;;;;;;;16.26;58.07;99870.22;10433949;28;20063;-64
2021/09/25 21:16:23;;;;;;;10.27;5.90;;;;;;;16.11;59.15;99870.56;10435961;28;20080;-64
2021/09/25 21:21:25;;;;;;;8.75;5.43;;;;;;;15.95;59.73;99875.44;10435327;28;20055;-64
2021/09/25 21:26:27;;;;;;;9.75;5.72;;;;;;;16.07;60.03;99866.50;10435080;28;20135;-64
2021/09/25 21:31:29;;;;;;;10.00;6.00;;;;;;;16.15;59.89;99866.69;10434572;28;20049;-64
2021/09/25 21:36:33;;;;;;;8.18;5.90;;;;;;;16.35;60.13;99875.56;10435147;28;20511;-64
2021/09/25 21:41:38;;;;;;;11.27;5.95;;;;;;;16.16;60.49;99865.72;10434829;28;20048;-64
2021/09/25 21:46:40;;;;;;;7.78;6.07;;;;;;;16.23;60.79;99869.53;10434384;28;20048;-66
2021/09/25 21:51:42;;;;;;;9.70;6.35;;;;;;;16.40;60.93;99872.53;10434071;28;20728;-65
2021/09/25 21:56:43;;;;;;;8.80;5.47;;;;;;;16.47;60.83;99873.75;10434451;28;20061;-64
2021/09/25 22:01:45;;;;;;;7.72;4.97;;;;;;;16.47;60.56;99873.75;10434028;28;20049;-64
2021/09/25 22:06:47;;;;;;;7.63;5.28;;;;;;;16.49;60.63;99871.81;10434050;28;20049;-65
2021/09/25 22:11:50;;;;;;;11.18;5.70;;;;;;;16.48;60.84;99870.13;10433492;28;20084;-64
2021/09/25 22:16:52;;;;;;;10.05;5.90;;;;;;;16.49;60.46;99871.81;10433551;28;20061;-64
2021/09/25 22:21:53;;;;;;;12.10;6.25;;;;;;;16.49;60.49;99877.91;10433700;28;20049;-64
2021/09/25 22:26:55;;;;;;;9.35;5.22;;;;;;;16.55;60.42;99871.28;10434052;28;20048;-64
2021/09/25 22:31:59;;;;;;;9.93;5.80;;;;;;;16.36;60.59;99871.13;10433910;28;20416;-64
2021/09/25 22:37:10;;;;;;;11.32;5.70;;;;;;;16.32;60.36;99865.28;10433353;28;20472;-64
2021/09/25 22:42:12;;;;;;;9.27;6.38;;;;;;;16.17;61.13;99851.56;10433211;28;20056;-64
2021/09/25 22:47:13;;;;;;;11.27;7.43;;;;;;;16.09;61.45;99861.09;10432968;28;20961;-64
2021/09/25 22:52:15;;;;;;;14.88;8.60;;;;;;;16.00;61.53;99854.75;10433074;28;20839;-64
2021/09/25 22:57:17;;;;;;;13.45;8.60;;;;;;;16.03;61.90;99861.59;10432929;28;20068;-64
2021/09/25 23:02:19;;;;;;;14.48;9.35;;;;;;;15.98;62.37;99851.41;10432474;28;20075;-64
2021/09/25 23:07:21;;;;;;;16.10;8.73;;;;;;;16.11;62.39;99848.59;10432793;28;20435;-64
2021/09/25 23:12:22;;;;;;;14.55;8.75;;;;;;;16.03;62.40;99843.97;10435653;28;20060;-64
2021/09/25 23:17:24;;;;;;;11.13;7.10;;;;;;;16.01;62.45;99845.06;10440169;28;20052;-64
2021/09/25 23:22:26;;;;;;;13.40;6.82;;;;;;;16.17;62.33;99845.44;10438490;28;20630;-64